createdAt,value
2023-01-21T00:00:38.551Z,72.17
2023-01-21T00:01:56.238Z,72.12
2023-01-21T00:03:00.613Z,72.24
2023-01-21T00:04:03.733Z,72.39
2023-01-21T00:05:06.985Z,72.49
2023-01-21T00:06:10.909Z,72.54
2023-01-21T00:07:21.880Z,72.45
2023-01-21T00:08:25.836Z,72.31
2023-01-21T00:09:29.092Z,72.78
2023-01-21T00:10:34.741Z,72.92
2023-01-21T00:11:39.616Z,72.71
2023-01-21T00:12:43.604Z,72.95
2023-01-21T00:13:50.526Z,73.70
2023-01-21T00:14:54.542Z,73.89
2023-01-21T00:15:57.897Z,73.90
2023-01-21T00:17:01.544Z,73.77
2023-01-21T00:18:07.199Z,74.01
2023-01-21T00:19:14.479Z,74.02
2023-01-21T00:20:18.469Z,73.81
2023-01-21T00:21:22.744Z,73.88
2023-01-21T00:22:28.482Z,73.70
2023-01-21T00:23:35.127Z,73.53
2023-01-21T00:24:38.472Z,73.46
2023-01-21T00:25:42.952Z,73.42
2023-01-21T00:26:46.042Z,73.70
2023-01-21T00:27:49.304Z,73.86
2023-01-21T00:28:54.827Z,74.05
2023-01-21T00:29:58.035Z,73.87
2023-01-21T00:31:02.725Z,74.12
2023-01-21T00:32:06.614Z,73.82
2023-01-21T00:33:11.280Z,73.68
2023-01-21T00:34:14.653Z,73.92
2023-01-21T00:35:17.865Z,74.09
2023-01-21T00:36:22.643Z,74.10
2023-01-21T00:37:25.629Z,74.46
2023-01-21T00:38:29.435Z,74.29
2023-01-21T00:39:32.302Z,74.83
2023-01-21T00:40:35.189Z,75.27
2023-01-21T00:41:38.156Z,75.20
2023-01-21T00:42:41.156Z,74.88
2023-01-21T00:43:44.327Z,74.90
2023-01-21T00:44:47.286Z,74.65
2023-01-21T00:45:50.296Z,74.82
2023-01-21T00:46:53.174Z,74.90
2023-01-21T00:47:56.125Z,75.20
2023-01-21T00:49:00.406Z,74.80
2023-01-21T00:50:03.893Z,74.77
2023-01-21T00:51:07.258Z,74.89
2023-01-21T00:52:10.271Z,74.71
2023-01-21T00:53:13.200Z,74.65
2023-01-21T00:54:16.243Z,74.61
2023-01-21T00:55:19.213Z,75.00
2023-01-21T00:56:23.841Z,75.44
2023-01-21T00:57:26.954Z,75.46
2023-01-21T00:58:30.262Z,75.14
2023-01-21T00:59:33.852Z,75.10
2023-01-21T01:00:36.762Z,75.20
2023-01-21T01:01:39.979Z,75.15
2023-01-21T01:02:43.017Z,75.05
2023-01-21T01:03:46.913Z,74.93
2023-01-21T01:04:50.182Z,74.75
2023-01-21T01:05:53.109Z,74.77
2023-01-21T01:06:56.423Z,75.35
2023-01-21T01:07:59.407Z,75.78
2023-01-21T01:09:02.655Z,75.68
2023-01-21T01:10:06.833Z,76.32
2023-01-21T01:11:12.454Z,76.69
2023-01-21T01:12:15.613Z,76.45
2023-01-21T01:13:18.826Z,76.25
2023-01-21T01:14:22.963Z,76.14
2023-01-21T01:15:28.325Z,76.19
2023-01-21T01:16:31.680Z,76.23
2023-01-21T01:17:35.205Z,76.19
2023-01-21T01:18:39.002Z,76.25
2023-01-21T01:19:44.187Z,76.57
2023-01-21T01:20:47.596Z,76.71
2023-01-21T01:21:53.025Z,76.42
2023-01-21T01:22:55.902Z,76.22
2023-01-21T01:24:03.060Z,76.26
2023-01-21T01:25:08.053Z,76.25
2023-01-21T01:26:12.779Z,76.07
2023-01-21T01:27:15.898Z,76.16
2023-01-21T01:28:18.780Z,76.34
2023-01-21T01:29:21.679Z,76.78
2023-01-21T01:30:25.018Z,76.53
2023-01-21T01:31:28.302Z,76.46
2023-01-21T01:32:31.285Z,76.32
2023-01-21T01:33:34.993Z,76.31
2023-01-21T01:34:38.543Z,76.27
2023-01-21T01:35:42.121Z,76.37
2023-01-21T01:36:53.611Z,76.33
2023-01-21T01:38:07.853Z,76.18
2023-01-21T01:39:10.964Z,76.02
2023-01-21T01:40:14.425Z,75.86
2023-01-21T01:41:20.449Z,75.73
2023-01-21T01:42:26.363Z,75.59
2023-01-21T01:43:58.184Z,75.48
2023-01-21T01:45:06.012Z,75.35
2023-01-21T01:46:30.913Z,75.40
2023-01-21T01:47:40.470Z,75.27
2023-01-21T01:48:45.699Z,75.24
2023-01-21T01:49:53.792Z,75.11
2023-01-21T01:51:03.670Z,75.07
2023-01-21T01:52:08.868Z,75.07
2023-01-21T01:53:13.643Z,75.03
2023-01-21T01:54:23.081Z,74.97
2023-01-21T01:55:26.799Z,74.82
2023-01-21T01:56:30.379Z,74.71
2023-01-21T01:57:38.073Z,74.63
2023-01-21T01:58:43.960Z,74.48
2023-01-21T01:59:47.200Z,74.41
2023-01-21T02:00:51.415Z,74.43
2023-01-21T02:01:56.614Z,74.37
2023-01-21T02:03:18.203Z,74.26
2023-01-21T02:04:23.181Z,74.18
2023-01-21T02:05:26.788Z,74.17
2023-01-21T02:06:29.654Z,74.12
2023-01-21T02:07:39.494Z,74.11
2023-01-21T02:08:43.922Z,74.16
2023-01-21T02:09:47.082Z,74.16
2023-01-21T02:10:52.480Z,74.05
2023-01-21T02:11:59.585Z,73.94
2023-01-21T02:13:04.269Z,73.93
2023-01-21T02:14:07.953Z,73.86
2023-01-21T02:15:11.161Z,73.78
2023-01-21T02:16:26.634Z,73.72
2023-01-21T02:17:34.786Z,73.76
2023-01-21T02:18:54.333Z,73.75
2023-01-21T02:20:17.538Z,73.64
2023-01-21T02:21:24.287Z,73.56
2023-01-21T02:22:48.107Z,73.56
2023-01-21T02:24:06.873Z,73.64
2023-01-21T02:25:15.452Z,73.74
2023-01-21T02:26:45.235Z,73.75
2023-01-21T02:28:03.471Z,73.74
2023-01-21T02:29:12.888Z,73.71
2023-01-21T02:31:55.883Z,73.51
2023-01-21T02:33:03.093Z,73.45
2023-01-21T02:34:18.069Z,73.44
2023-01-21T02:35:36.405Z,73.42
2023-01-21T02:36:43.542Z,73.44
2023-01-21T02:37:51.952Z,73.27
2023-01-21T02:39:04.085Z,73.02
2023-01-21T02:40:09.899Z,73.08
2023-01-21T02:41:24.989Z,73.11
2023-01-21T02:42:47.163Z,73.08
2023-01-21T02:44:10.379Z,72.95
2023-01-21T02:45:13.295Z,72.77
2023-01-21T02:46:26.128Z,72.77
2023-01-21T02:47:34.633Z,72.70
2023-01-21T02:48:42.766Z,72.59
2023-01-21T02:49:50.700Z,72.47
2023-01-21T02:50:53.959Z,72.40
2023-01-21T02:51:59.365Z,72.24
2023-01-21T02:53:04.392Z,72.27
2023-01-21T02:54:36.247Z,72.20
2023-01-21T02:55:39.587Z,72.23
2023-01-21T02:56:44.134Z,72.18
2023-01-21T02:57:46.989Z,72.15
2023-01-21T02:58:52.341Z,72.06
2023-01-21T02:59:56.865Z,72.04
2023-01-21T03:01:05.520Z,71.95
2023-01-21T03:02:13.464Z,71.97
2023-01-21T03:03:32.763Z,72.00
2023-01-21T03:04:58.490Z,72.01
2023-01-21T03:06:07.545Z,71.93
2023-01-21T03:07:15.687Z,71.78
2023-01-21T03:08:22.480Z,71.81
2023-01-21T03:09:26.269Z,71.83
2023-01-21T03:10:36.355Z,71.43
2023-01-21T03:11:41.900Z,71.42
2023-01-21T03:12:51.114Z,70.75
2023-01-21T03:14:32.727Z,71.12
2023-01-21T03:15:58.439Z,71.01
2023-01-21T03:17:28.056Z,70.93
2023-01-21T03:18:39.238Z,70.56
2023-01-21T03:19:50.369Z,70.57
2023-01-21T03:21:03.120Z,70.50
2023-01-21T03:22:09.085Z,70.35
2023-01-21T03:23:17.689Z,70.18
2023-01-21T03:24:20.737Z,70.35
2023-01-21T03:25:24.460Z,70.44
2023-01-21T03:26:31.027Z,70.39
2023-01-21T03:27:35.290Z,70.07
2023-01-21T03:28:41.596Z,70.06
2023-01-21T03:29:45.517Z,69.68
2023-01-21T03:30:52.602Z,69.86
2023-01-21T03:32:04.039Z,70.08
2023-01-21T03:33:07.825Z,70.13
2023-01-21T03:34:13.794Z,70.12
2023-01-21T03:35:20.085Z,70.14
2023-01-21T03:36:41.570Z,70.05
2023-01-21T03:37:50.027Z,69.97
2023-01-21T03:38:56.245Z,69.71
2023-01-21T03:39:59.300Z,69.44
2023-01-21T03:41:18.735Z,69.44
2023-01-21T03:42:22.910Z,69.49
2023-01-21T03:43:25.901Z,69.27
2023-01-21T03:44:28.871Z,69.34
2023-01-21T03:45:35.832Z,69.30
2023-01-21T03:46:57.294Z,69.29
2023-01-21T03:48:04.058Z,69.45
2023-01-21T03:49:12.855Z,69.25
2023-01-21T03:50:27.699Z,69.10
2023-01-21T03:51:34.122Z,69.25
2023-01-21T03:52:41.671Z,68.81
2023-01-21T03:53:44.900Z,68.17
2023-01-21T03:54:49.080Z,68.85
2023-01-21T03:55:51.926Z,69.04
2023-01-21T03:56:54.788Z,68.59
2023-01-21T03:57:57.992Z,68.70
2023-01-21T03:59:00.898Z,68.44
2023-01-21T04:00:05.088Z,68.50
2023-01-21T04:01:08.805Z,68.16
2023-01-21T04:02:12.078Z,68.00
2023-01-21T04:03:15.126Z,67.72
2023-01-21T04:04:18.078Z,67.81
2023-01-21T04:05:20.890Z,67.69
2023-01-21T04:06:23.818Z,67.56
2023-01-21T04:07:26.883Z,67.38
2023-01-21T04:08:29.920Z,67.69
2023-01-21T04:09:32.843Z,67.74
2023-01-21T04:10:35.704Z,67.87
2023-01-21T04:11:38.633Z,67.98
2023-01-21T04:12:41.511Z,67.94
2023-01-21T04:13:44.686Z,67.87
2023-01-21T04:14:47.636Z,68.01
2023-01-21T04:15:50.535Z,68.09
2023-01-21T04:16:56.085Z,68.02
2023-01-21T04:17:59.126Z,67.70
2023-01-21T04:19:02.296Z,67.87
2023-01-21T04:20:06.176Z,67.91
2023-01-21T04:21:09.008Z,67.98
2023-01-21T04:22:11.948Z,67.96
2023-01-21T04:23:14.766Z,66.99
2023-01-21T04:24:17.771Z,66.91
2023-01-21T04:25:20.721Z,67.29
2023-01-21T04:26:23.606Z,67.34
2023-01-21T04:27:26.409Z,67.30
2023-01-21T04:28:29.264Z,66.59
2023-01-21T04:29:32.211Z,66.21
2023-01-21T04:30:35.170Z,66.97
2023-01-21T04:31:38.138Z,66.91
2023-01-21T04:32:41.071Z,66.87
2023-01-21T04:33:44.024Z,66.84
2023-01-21T04:34:47.112Z,66.65
2023-01-21T04:35:50.135Z,66.88
2023-01-21T04:36:53.072Z,66.56
2023-01-21T04:37:55.921Z,66.64
2023-01-21T04:38:58.769Z,66.67
2023-01-21T04:40:02.238Z,66.66
2023-01-21T04:41:05.209Z,66.74
2023-01-21T04:42:08.107Z,66.55
2023-01-21T04:43:10.941Z,65.91
2023-01-21T04:44:13.893Z,65.90
2023-01-21T04:45:17.061Z,66.24
2023-01-21T04:46:19.934Z,66.29
2023-01-21T04:47:23.165Z,65.96
2023-01-21T04:48:26.029Z,66.20
2023-01-21T04:49:29.035Z,66.16
2023-01-21T04:50:31.952Z,66.21
2023-01-21T04:51:35.048Z,66.41
2023-01-21T04:52:38.423Z,66.53
2023-01-21T04:53:41.277Z,66.61
2023-01-21T04:54:44.194Z,66.43
2023-01-21T04:55:47.337Z,66.54
2023-01-21T04:56:50.444Z,66.62
2023-01-21T04:57:53.433Z,66.64
2023-01-21T04:58:57.671Z,66.54
2023-01-21T05:00:00.740Z,66.24
2023-01-21T05:01:03.840Z,65.96
2023-01-21T05:02:06.804Z,65.99
2023-01-21T05:03:09.622Z,66.53
2023-01-21T05:04:12.664Z,66.08
2023-01-21T05:05:15.713Z,65.78
2023-01-21T05:06:18.699Z,66.00
2023-01-21T05:07:21.841Z,65.54
2023-01-21T05:08:24.747Z,65.35
2023-01-21T05:09:27.877Z,65.85
2023-01-21T05:10:30.726Z,65.87
2023-01-21T05:11:33.872Z,65.81
2023-01-21T05:12:36.769Z,65.49
2023-01-21T05:13:39.537Z,65.28
2023-01-21T05:14:42.412Z,64.80
2023-01-21T05:15:45.481Z,65.44
2023-01-21T05:16:48.651Z,65.36
2023-01-21T05:17:51.596Z,64.91
2023-01-21T05:18:54.481Z,65.42
2023-01-21T05:19:57.421Z,65.57
2023-01-21T05:21:00.305Z,65.62
2023-01-21T05:22:03.440Z,65.75
2023-01-21T05:23:06.289Z,65.86
2023-01-21T05:24:09.289Z,65.95
2023-01-21T05:25:12.399Z,66.18
2023-01-21T05:26:15.220Z,66.29
2023-01-21T05:27:19.996Z,66.28
2023-01-21T05:28:23.060Z,65.90
2023-01-21T05:30:09.688Z,65.87
2023-01-21T05:31:12.812Z,65.45
2023-01-21T05:32:16.702Z,65.76
2023-01-21T05:33:26.205Z,65.90
2023-01-21T05:34:29.176Z,65.53
2023-01-21T05:35:34.761Z,65.58
2023-01-21T05:36:38.481Z,65.57
2023-01-21T05:37:41.345Z,65.76
2023-01-21T05:38:44.280Z,65.81
2023-01-21T05:39:47.145Z,65.62
2023-01-21T05:40:50.058Z,65.53
2023-01-21T05:41:52.968Z,65.52
2023-01-21T05:42:55.810Z,65.54
2023-01-21T05:43:58.948Z,65.44
2023-01-21T05:45:02.003Z,65.35
2023-01-21T05:46:07.886Z,65.30
2023-01-21T05:47:11.960Z,65.35
2023-01-21T05:48:17.068Z,65.29
2023-01-21T05:49:22.688Z,65.26
2023-01-21T05:50:26.532Z,65.27
2023-01-21T05:51:29.648Z,65.16
2023-01-21T05:52:34.443Z,65.03
2023-01-21T05:53:37.295Z,65.20
2023-01-21T05:54:52.472Z,65.15
2023-01-21T05:56:03.688Z,65.19
2023-01-21T05:57:06.576Z,65.25
2023-01-21T05:58:09.486Z,65.23
2023-01-21T05:59:12.394Z,65.28
2023-01-21T06:00:15.923Z,65.37
2023-01-21T06:01:19.175Z,65.27
2023-01-21T06:02:22.171Z,65.19
2023-01-21T06:03:25.283Z,65.12
2023-01-21T06:04:30.691Z,65.13
2023-01-21T06:05:33.862Z,64.61
2023-01-21T06:06:36.842Z,64.57
2023-01-21T06:07:39.884Z,64.53
2023-01-21T06:08:42.852Z,64.35
2023-01-21T06:09:45.991Z,64.35
2023-01-21T06:10:49.169Z,64.20
2023-01-21T06:11:52.071Z,64.46
2023-01-21T06:12:54.863Z,64.46
2023-01-21T06:13:57.669Z,64.52
2023-01-21T06:15:00.596Z,64.67
2023-01-21T06:16:04.988Z,64.67
2023-01-21T06:17:08.842Z,64.86
2023-01-21T06:18:11.718Z,64.96
2023-01-21T06:19:14.616Z,64.62
2023-01-21T06:20:18.064Z,64.67
2023-01-21T06:21:21.432Z,64.41
2023-01-21T06:22:24.412Z,64.14
2023-01-21T06:23:27.554Z,64.32
2023-01-21T06:24:30.388Z,64.22
2023-01-21T06:25:34.353Z,64.40
2023-01-21T06:26:39.569Z,64.34
2023-01-21T06:27:42.390Z,64.41
2023-01-21T06:28:45.729Z,64.28
2023-01-21T06:29:48.567Z,64.33
2023-01-21T06:30:51.603Z,64.32
2023-01-21T06:31:54.925Z,64.46
2023-01-21T06:32:58.117Z,64.57
2023-01-21T06:34:01.004Z,64.61
2023-01-21T06:35:04.447Z,64.53
2023-01-21T06:36:07.567Z,64.26
2023-01-21T06:37:11.329Z,64.21
2023-01-21T06:38:14.543Z,64.35
2023-01-21T06:39:17.384Z,64.47
2023-01-21T06:40:20.311Z,64.67
2023-01-21T06:41:23.631Z,64.73
2023-01-21T06:42:26.558Z,64.82
2023-01-21T06:43:29.517Z,64.89
2023-01-21T06:44:32.385Z,64.90
2023-01-21T06:45:35.244Z,64.81
2023-01-21T06:46:41.276Z,64.71
2023-01-21T06:47:46.900Z,64.57
2023-01-21T06:48:49.890Z,64.17
2023-01-21T06:49:53.192Z,64.28
2023-01-21T06:50:56.150Z,64.33
2023-01-21T06:51:59.085Z,64.43
2023-01-21T06:53:02.458Z,64.60
2023-01-21T06:54:05.354Z,64.72
2023-01-21T06:55:08.440Z,64.82
2023-01-21T06:56:11.335Z,64.90
2023-01-21T06:57:14.790Z,64.79
2023-01-21T06:58:17.915Z,64.43
2023-01-21T06:59:21.048Z,64.26
2023-01-21T07:00:23.990Z,64.20
2023-01-21T07:01:26.921Z,64.20
2023-01-21T07:02:30.066Z,64.37
2023-01-21T07:03:33.311Z,64.28
2023-01-21T07:04:36.206Z,64.19
2023-01-21T07:05:39.172Z,64.15
2023-01-21T07:06:42.470Z,63.95
2023-01-21T07:07:45.302Z,64.06
2023-01-21T07:08:48.989Z,64.11
2023-01-21T07:09:52.112Z,64.30
2023-01-21T07:10:54.947Z,64.40
2023-01-21T07:11:58.785Z,64.56
2023-01-21T07:13:01.850Z,64.83
2023-01-21T07:14:05.099Z,64.96
2023-01-21T07:15:08.412Z,64.97
2023-01-21T07:16:11.432Z,64.78
2023-01-21T07:17:14.632Z,64.73
2023-01-21T07:18:17.570Z,64.83
2023-01-21T07:19:20.734Z,64.93
2023-01-21T07:20:23.874Z,64.82
2023-01-21T07:21:26.738Z,64.55
2023-01-21T07:22:29.609Z,64.59
2023-01-21T07:23:32.411Z,64.64
2023-01-21T07:24:35.380Z,64.54
2023-01-21T07:25:38.271Z,64.45
2023-01-21T07:26:41.678Z,64.44
2023-01-21T07:27:44.509Z,64.49
2023-01-21T07:28:47.356Z,64.47
2023-01-21T07:29:50.430Z,64.53
2023-01-21T07:30:53.458Z,64.46
2023-01-21T07:31:56.356Z,64.18
2023-01-21T07:33:04.494Z,64.16
2023-01-21T07:34:07.442Z,64.38
2023-01-21T07:35:10.450Z,64.63
2023-01-21T07:36:13.357Z,64.78
2023-01-21T07:37:16.181Z,65.01
2023-01-21T07:38:19.180Z,65.12
2023-01-21T07:39:22.119Z,65.16
2023-01-21T07:40:25.240Z,65.11
2023-01-21T07:41:28.121Z,65.07
2023-01-21T07:42:30.997Z,64.85
2023-01-21T07:43:33.834Z,64.48
2023-01-21T07:44:36.840Z,64.37
2023-01-21T07:45:39.884Z,64.28
2023-01-21T07:46:42.899Z,64.26
2023-01-21T07:47:46.395Z,64.01
2023-01-21T07:48:51.052Z,63.92
2023-01-21T07:49:54.100Z,63.94
2023-01-21T07:51:00.336Z,63.86
2023-01-21T07:52:03.247Z,63.84
2023-01-21T07:53:06.190Z,64.05
2023-01-21T07:54:10.180Z,64.05
2023-01-21T07:55:17.937Z,64.06
2023-01-21T07:56:22.094Z,64.13
2023-01-21T07:57:24.994Z,64.17
2023-01-21T07:58:27.974Z,64.04
2023-01-21T07:59:30.940Z,63.70
2023-01-21T08:00:33.820Z,64.13
2023-01-21T08:01:36.784Z,64.24
2023-01-21T08:02:40.319Z,64.37
2023-01-21T08:03:43.617Z,64.41
2023-01-21T08:04:46.524Z,64.37
2023-01-21T08:05:50.963Z,64.16
2023-01-21T08:06:57.075Z,64.15
2023-01-21T08:08:00.331Z,64.08
2023-01-21T08:09:03.803Z,64.15
2023-01-21T08:10:06.769Z,64.26
2023-01-21T08:11:09.727Z,64.36
2023-01-21T08:12:12.633Z,64.57
2023-01-21T08:13:15.471Z,64.73
2023-01-21T08:14:18.345Z,64.69
2023-01-21T08:15:21.322Z,64.40
2023-01-21T08:16:24.280Z,64.29
2023-01-21T08:17:27.506Z,64.24
2023-01-21T08:18:30.316Z,64.40
2023-01-21T08:19:33.289Z,64.52
2023-01-21T08:20:36.191Z,64.63
2023-01-21T08:21:39.004Z,64.61
2023-01-21T08:22:42.021Z,64.53
2023-01-21T08:23:44.824Z,64.34
2023-01-21T08:24:47.795Z,64.29
2023-01-21T08:25:50.614Z,64.33
2023-01-21T08:26:57.420Z,64.48
2023-01-21T08:28:01.784Z,64.72
2023-01-21T08:29:04.683Z,64.95
2023-01-21T08:30:08.135Z,64.94
2023-01-21T08:31:12.683Z,64.83
2023-01-21T08:32:16.104Z,64.89
2023-01-21T08:33:19.514Z,64.88
2023-01-21T08:34:22.404Z,64.89
2023-01-21T08:35:25.462Z,64.91
2023-01-21T08:36:28.423Z,64.95
2023-01-21T08:37:31.296Z,64.92
2023-01-21T08:38:34.788Z,65.11
2023-01-21T08:39:37.689Z,65.34
2023-01-21T08:40:40.430Z,65.33
2023-01-21T08:41:44.206Z,65.15
2023-01-21T08:42:47.056Z,64.93
2023-01-21T08:43:50.040Z,64.86
2023-01-21T08:44:54.200Z,64.93
2023-01-21T08:45:59.113Z,64.94
2023-01-21T08:47:02.178Z,65.04
2023-01-21T08:48:05.243Z,65.07
2023-01-21T08:49:08.340Z,65.18
2023-01-21T08:50:11.295Z,65.35
2023-01-21T08:51:14.140Z,65.38
2023-01-21T08:52:20.862Z,65.50
2023-01-21T08:53:24.354Z,65.64
2023-01-21T08:54:27.321Z,65.65
2023-01-21T08:55:30.307Z,65.77
2023-01-21T08:56:33.243Z,65.74
2023-01-21T08:57:36.094Z,65.75
2023-01-21T08:58:38.976Z,65.81
2023-01-21T08:59:41.937Z,65.90
2023-01-21T09:00:44.929Z,66.13
2023-01-21T09:01:47.793Z,66.17
2023-01-21T09:02:51.810Z,66.18
2023-01-21T09:04:01.096Z,66.23
2023-01-21T09:05:04.186Z,66.31
2023-01-21T09:06:07.548Z,66.38
2023-01-21T09:07:10.383Z,66.43
2023-01-21T09:08:13.508Z,66.44
2023-01-21T09:09:16.664Z,66.35
2023-01-21T09:10:38.382Z,66.26
2023-01-21T09:11:41.821Z,66.02
2023-01-21T09:12:44.629Z,66.01
2023-01-21T09:13:47.467Z,66.00
2023-01-21T09:14:50.534Z,65.96
2023-01-21T09:15:53.640Z,65.93
2023-01-21T09:16:56.568Z,66.18
2023-01-21T09:17:59.496Z,66.37
2023-01-21T09:19:02.784Z,66.46
2023-01-21T09:20:05.813Z,66.52
2023-01-21T09:21:09.532Z,66.77
2023-01-21T09:22:13.923Z,66.83
2023-01-21T09:23:25.670Z,67.02
2023-01-21T09:24:28.849Z,66.99
2023-01-21T09:25:34.119Z,67.00
2023-01-21T09:26:37.282Z,67.00
2023-01-21T09:27:40.077Z,66.85
2023-01-21T09:28:43.996Z,66.72
2023-01-21T09:29:46.958Z,66.65
2023-01-21T09:30:49.875Z,66.62
2023-01-21T09:31:53.012Z,66.71
2023-01-21T09:32:56.247Z,66.81
2023-01-21T09:34:00.262Z,66.84
2023-01-21T09:35:03.133Z,66.95
2023-01-21T09:36:07.263Z,67.27
2023-01-21T09:37:10.443Z,67.33
2023-01-21T09:38:13.307Z,67.49
2023-01-21T09:39:16.172Z,67.68
2023-01-21T09:40:19.159Z,67.68
2023-01-21T09:41:24.615Z,67.60
2023-01-21T09:42:30.337Z,67.43
2023-01-21T09:43:37.070Z,67.43
2023-01-21T09:44:44.789Z,67.44
2023-01-21T09:45:48.727Z,67.63
2023-01-21T09:46:57.665Z,67.82
2023-01-21T09:48:01.644Z,67.90
2023-01-21T09:49:06.583Z,68.02
2023-01-21T09:50:14.901Z,68.07
2023-01-21T09:51:28.547Z,68.23
2023-01-21T09:52:41.732Z,68.20
2023-01-21T09:53:49.563Z,68.11
2023-01-21T09:54:52.595Z,68.13
2023-01-21T09:55:58.931Z,68.20
2023-01-21T09:57:09.980Z,68.31
2023-01-21T09:58:25.528Z,68.30
2023-01-21T10:00:06.725Z,68.34
2023-01-21T10:01:20.636Z,68.47
2023-01-21T10:02:35.484Z,68.57
2023-01-21T10:03:44.426Z,68.76
2023-01-21T10:04:57.995Z,68.73
2023-01-21T10:06:08.486Z,68.59
2023-01-21T10:07:16.337Z,68.52
2023-01-21T10:08:31.743Z,68.45
2023-01-21T10:09:40.766Z,68.38
2023-01-21T10:11:02.405Z,68.30
2023-01-21T10:12:05.241Z,68.32
2023-01-21T10:13:20.594Z,68.36
2023-01-21T10:14:26.595Z,68.44
2023-01-21T10:15:36.684Z,68.47
2023-01-21T10:16:55.071Z,68.72
2023-01-21T10:18:08.084Z,68.90
2023-01-21T10:19:17.498Z,68.84
2023-01-21T10:20:39.119Z,68.78
2023-01-21T10:21:47.042Z,68.85
2023-01-21T10:22:54.776Z,68.85
2023-01-21T10:24:01.018Z,68.98
2023-01-21T10:25:13.377Z,68.94
2023-01-21T10:26:16.271Z,68.99
2023-01-21T10:27:20.530Z,68.93
2023-01-21T10:28:24.633Z,68.81
2023-01-21T10:29:27.828Z,68.92
2023-01-21T10:30:39.065Z,69.02
2023-01-21T10:31:44.509Z,69.11
2023-01-21T10:32:50.357Z,69.03
2023-01-21T10:33:53.290Z,68.99
2023-01-21T10:34:57.445Z,69.13
2023-01-21T10:36:13.299Z,69.29
2023-01-21T10:37:29.465Z,69.31
2023-01-21T10:38:38.899Z,69.41
2023-01-21T10:40:00.559Z,69.38
2023-01-21T10:41:26.121Z,69.32
2023-01-21T10:42:49.828Z,69.15
2023-01-21T10:44:13.497Z,69.39
2023-01-21T10:45:22.425Z,69.37
2023-01-21T10:46:25.398Z,69.16
2023-01-21T10:47:34.818Z,69.03
2023-01-21T10:48:42.967Z,69.03
2023-01-21T10:50:16.700Z,69.06
2023-01-21T10:51:52.117Z,69.07
2023-01-21T10:53:14.344Z,68.90
2023-01-21T10:54:26.090Z,68.98
2023-01-21T10:55:39.695Z,68.96
2023-01-21T10:56:42.565Z,69.00
2023-01-21T10:57:46.595Z,69.01
2023-01-21T10:58:52.410Z,68.94
2023-01-21T10:59:57.826Z,68.86
2023-01-21T11:01:03.399Z,68.71
2023-01-21T11:02:11.146Z,68.69
2023-01-21T11:03:24.386Z,68.80
2023-01-21T11:04:28.149Z,68.74
2023-01-21T11:05:32.616Z,68.72
2023-01-21T11:06:35.558Z,68.73
2023-01-21T11:07:42.502Z,68.84
2023-01-21T11:08:48.289Z,68.86
2023-01-21T11:09:51.852Z,68.73
2023-01-21T11:10:55.569Z,68.56
2023-01-21T11:12:00.864Z,68.38
2023-01-21T11:13:03.882Z,68.29
2023-01-21T11:14:06.937Z,68.32
2023-01-21T11:15:14.199Z,68.35
2023-01-21T11:16:30.591Z,68.12
2023-01-21T11:17:35.087Z,67.47
2023-01-21T11:18:37.959Z,67.60
2023-01-21T11:19:42.272Z,67.59
2023-01-21T11:20:45.143Z,67.52
2023-01-21T11:22:06.407Z,67.54
2023-01-21T11:23:25.409Z,67.38
2023-01-21T11:24:29.743Z,67.34
2023-01-21T11:25:41.829Z,67.36
2023-01-21T11:26:50.856Z,67.30
2023-01-21T11:27:53.952Z,67.32
2023-01-21T11:29:12.133Z,67.37
2023-01-21T11:30:52.010Z,67.45
2023-01-21T11:32:14.161Z,67.45
2023-01-21T11:33:23.369Z,67.30
2023-01-21T11:34:26.589Z,66.93
2023-01-21T11:35:30.127Z,66.76
2023-01-21T11:36:34.806Z,66.92
2023-01-21T11:37:38.191Z,67.06
2023-01-21T11:38:41.594Z,67.10
2023-01-21T11:40:13.240Z,67.15
2023-01-21T11:41:22.689Z,67.32
2023-01-21T11:42:28.252Z,67.42
2023-01-21T11:43:55.275Z,67.40
2023-01-21T11:45:01.437Z,67.36
2023-01-21T11:46:21.171Z,67.43
2023-01-21T11:47:38.688Z,67.47
2023-01-21T11:48:46.597Z,67.41
2023-01-21T11:49:49.563Z,67.38
2023-01-21T11:51:05.878Z,67.17
2023-01-21T11:52:16.782Z,67.10
2023-01-21T11:53:19.712Z,67.24
2023-01-21T11:54:23.750Z,67.34
2023-01-21T11:55:26.645Z,67.56
2023-01-21T11:56:29.730Z,67.84
2023-01-21T11:57:33.315Z,68.02
2023-01-21T11:58:39.141Z,67.95
2023-01-21T11:59:45.877Z,67.83
2023-01-21T12:00:50.803Z,67.63
2023-01-21T12:01:59.054Z,67.62
2023-01-21T12:03:04.314Z,67.69
2023-01-21T12:04:14.594Z,67.72
2023-01-21T12:05:27.339Z,67.53
2023-01-21T12:06:30.919Z,67.48
2023-01-21T12:07:36.235Z,67.47
2023-01-21T12:08:40.555Z,67.59
2023-01-21T12:09:47.864Z,67.76
2023-01-21T12:10:51.767Z,68.00
2023-01-21T12:12:10.224Z,68.25
2023-01-21T12:13:31.947Z,68.34
2023-01-21T12:14:50.320Z,68.20
2023-01-21T12:16:11.865Z,67.96
2023-01-21T12:17:37.856Z,67.89
2023-01-21T12:18:42.763Z,67.96
2023-01-21T12:19:57.296Z,68.13
2023-01-21T12:21:00.822Z,68.31
2023-01-21T12:22:06.859Z,68.41
2023-01-21T12:23:32.120Z,68.34
2023-01-21T12:24:47.490Z,68.46
2023-01-21T12:26:10.601Z,68.28
2023-01-21T12:27:13.590Z,68.19
2023-01-21T12:28:41.884Z,68.03
2023-01-21T12:29:53.949Z,67.81
2023-01-21T12:30:56.838Z,67.76
2023-01-21T12:32:02.274Z,67.79
2023-01-21T12:33:13.018Z,67.79
2023-01-21T12:34:22.089Z,67.76
2023-01-21T12:35:40.935Z,67.74
2023-01-21T12:36:47.889Z,67.76
2023-01-21T12:38:24.179Z,67.75
2023-01-21T12:39:37.495Z,67.78
2023-01-21T12:40:43.960Z,67.72
2023-01-21T12:41:51.296Z,67.61
2023-01-21T12:42:56.353Z,67.37
2023-01-21T12:44:18.066Z,67.30
2023-01-21T12:45:24.839Z,67.33
2023-01-21T12:46:34.772Z,67.26
2023-01-21T12:47:52.772Z,67.39
2023-01-21T12:49:15.940Z,67.46
2023-01-21T12:50:23.791Z,67.47
2023-01-21T12:51:32.684Z,67.57
2023-01-21T12:52:58.910Z,67.59
2023-01-21T12:54:09.846Z,67.52
2023-01-21T12:55:31.540Z,67.17
2023-01-21T12:56:43.786Z,67.15
2023-01-21T12:57:56.760Z,67.16
2023-01-21T12:59:11.821Z,66.97
2023-01-21T13:00:26.667Z,67.02
2023-01-21T13:01:50.298Z,67.09
2023-01-21T13:03:12.615Z,66.89
2023-01-21T13:04:33.469Z,66.58
2023-01-21T13:05:41.214Z,66.72
2023-01-21T13:06:54.283Z,66.62
2023-01-21T13:07:57.703Z,66.58
2023-01-21T13:09:07.724Z,66.69
2023-01-21T13:10:13.851Z,66.80
2023-01-21T13:11:22.041Z,66.79
2023-01-21T13:12:29.564Z,66.77
2023-01-21T13:13:39.409Z,66.81
2023-01-21T13:14:48.111Z,66.81
2023-01-21T13:15:55.177Z,66.60
2023-01-21T13:17:01.132Z,66.50
2023-01-21T13:18:10.435Z,66.36
2023-01-21T13:19:24.478Z,66.40
2023-01-21T13:20:27.980Z,66.56
2023-01-21T13:21:43.175Z,66.58
2023-01-21T13:22:58.207Z,66.52
2023-01-21T13:24:15.475Z,66.60
2023-01-21T13:25:29.570Z,66.65
2023-01-21T13:26:55.450Z,66.74
2023-01-21T13:28:18.682Z,66.74
2023-01-21T13:29:32.211Z,66.84
2023-01-21T13:30:55.221Z,66.92
2023-01-21T13:32:16.916Z,66.93
2023-01-21T13:33:24.648Z,66.92
2023-01-21T13:34:37.992Z,66.97
2023-01-21T13:35:42.588Z,67.08
2023-01-21T13:36:46.995Z,67.15
2023-01-21T13:37:53.702Z,67.34
2023-01-21T13:38:59.937Z,67.49
2023-01-21T13:40:08.988Z,67.48
2023-01-21T13:41:17.363Z,67.36
2023-01-21T13:42:38.781Z,67.36
2023-01-21T13:43:56.808Z,67.37
2023-01-21T13:45:18.421Z,67.37
2023-01-21T13:46:29.127Z,67.56
2023-01-21T13:47:32.327Z,67.42
2023-01-21T13:48:55.458Z,67.27
2023-01-21T13:50:06.162Z,67.00
2023-01-21T13:51:12.533Z,67.12
2023-01-21T13:52:27.826Z,67.31
2023-01-21T13:53:41.921Z,67.42
2023-01-21T13:54:58.725Z,67.33
2023-01-21T13:56:11.166Z,67.40
2023-01-21T13:57:14.023Z,67.45
2023-01-21T13:58:25.084Z,67.24
2023-01-21T13:59:35.090Z,67.24
2023-01-21T14:00:41.601Z,67.31
2023-01-21T14:01:47.626Z,67.47
2023-01-21T14:03:10.328Z,67.56
2023-01-21T14:04:33.491Z,67.61
2023-01-21T14:05:59.527Z,67.73
2023-01-21T14:07:09.123Z,67.74
2023-01-21T14:08:27.453Z,67.80
2023-01-21T14:09:38.457Z,67.91
2023-01-21T14:10:47.882Z,68.24
2023-01-21T14:11:54.906Z,68.68
2023-01-21T14:13:16.742Z,68.49
2023-01-21T14:14:37.914Z,68.91
2023-01-21T14:15:43.978Z,68.73
2023-01-21T14:17:16.217Z,68.76
2023-01-21T14:18:37.878Z,69.06
2023-01-21T14:19:40.686Z,68.89
2023-01-21T14:20:46.737Z,68.81
2023-01-21T14:21:59.289Z,69.21
2023-01-21T14:23:05.645Z,69.43
2023-01-21T14:24:27.707Z,69.40
2023-01-21T14:25:40.271Z,69.40